createdAt,value
2023-05-11T00:01:49.588Z,99661.06
2023-05-11T00:03:52.573Z,99669.16
2023-05-11T00:05:55.486Z,99668.66
2023-05-11T00:07:58.175Z,99663.50
2023-05-11T00:10:01.338Z,99663.31
2023-05-11T00:12:04.954Z,99662.19
2023-05-11T00:14:07.608Z,99656.69
2023-05-11T00:16:10.447Z,99655.06
2023-05-11T00:18:13.413Z,99654.25
2023-05-11T00:20:16.556Z,99662.03
2023-05-11T00:22:19.324Z,99657.19
2023-05-11T00:24:22.018Z,99659.75
2023-05-11T00:26:24.775Z,99659.44
2023-05-11T00:28:27.551Z,99657.50
2023-05-11T00:30:30.340Z,99660.25
2023-05-11T00:32:33.288Z,99654.09
2023-05-11T00:34:36.134Z,99665.09
2023-05-11T00:36:41.296Z,99657.16
2023-05-11T00:38:44.221Z,99653.59
2023-05-11T00:40:47.018Z,99656.00
2023-05-11T00:42:49.699Z,99656.50
2023-05-11T00:44:52.465Z,99653.75
2023-05-11T00:46:55.286Z,99659.75
2023-05-11T00:48:58.586Z,99659.75
2023-05-11T00:51:02.326Z,99661.03
2023-05-11T00:53:05.023Z,99660.41
2023-05-11T00:55:08.130Z,99657.81
2023-05-11T00:57:11.022Z,99662.66
2023-05-11T00:59:14.323Z,99663.16
2023-05-11T01:01:19.131Z,99664.44
2023-05-11T01:03:22.094Z,99660.09
2023-05-11T01:05:34.480Z,99662.03
2023-05-11T01:08:06.124Z,99663.66
2023-05-11T01:10:24.092Z,99660.41
2023-05-11T01:12:41.969Z,99662.19
2023-05-11T01:15:16.653Z,99660.88
2023-05-11T01:17:34.479Z,99663.31
2023-05-11T01:19:54.544Z,99664.47
2023-05-11T01:21:59.160Z,99658.78
2023-05-11T01:24:04.660Z,99670.75
2023-05-11T01:26:17.477Z,99669.97
2023-05-11T01:28:41.994Z,99666.06
2023-05-11T01:30:50.773Z,99671.56
2023-05-11T01:32:56.452Z,99669.47
2023-05-11T01:35:06.610Z,99673.03
2023-05-11T01:37:19.648Z,99667.03
2023-05-11T01:39:40.142Z,99667.34
2023-05-11T01:41:49.479Z,99672.53
2023-05-11T01:43:58.918Z,99668.66
2023-05-11T01:46:03.391Z,99667.53
2023-05-11T01:48:09.857Z,99666.38
2023-05-11T01:50:13.938Z,99671.56
2023-05-11T01:52:18.190Z,99667.38
2023-05-11T01:54:22.270Z,99668.66
2023-05-11T01:56:27.038Z,99664.63
2023-05-11T01:58:31.348Z,99666.09
2023-05-11T02:00:35.203Z,99664.63
2023-05-11T02:02:38.859Z,99670.75
2023-05-11T02:04:42.864Z,99668.19
2023-05-11T02:06:48.702Z,99667.03
2023-05-11T02:08:52.704Z,99671.56
2023-05-11T02:10:58.019Z,99669.00
2023-05-11T02:13:03.983Z,99668.84
2023-05-11T02:15:09.890Z,99678.06
2023-05-11T02:17:16.142Z,99669.94
2023-05-11T02:19:20.904Z,99679.97
2023-05-11T02:21:24.935Z,99682.41
2023-05-11T02:23:28.364Z,99683.41
2023-05-11T02:25:32.117Z,99687.91
2023-05-11T02:27:36.220Z,99681.41
2023-05-11T02:29:39.022Z,99688.28
2023-05-11T02:31:45.647Z,99680.47
2023-05-11T02:33:52.514Z,99684.06
2023-05-11T02:35:56.801Z,99688.09
2023-05-11T02:38:04.145Z,99681.59
2023-05-11T02:40:13.628Z,99684.50
2023-05-11T02:42:20.902Z,99688.06
2023-05-11T02:44:27.811Z,99682.22
2023-05-11T02:46:34.826Z,99684.00
2023-05-11T02:48:45.494Z,99688.03
2023-05-11T02:50:51.738Z,99686.09
2023-05-11T02:52:57.206Z,99688.66
2023-05-11T02:55:02.149Z,99670.53
2023-05-11T02:57:07.795Z,99690.94
2023-05-11T02:59:11.110Z,99691.88
2023-05-11T03:01:14.053Z,99689.31
2023-05-11T03:03:17.135Z,99687.84
2023-05-11T03:05:20.041Z,99686.69
2023-05-11T03:07:23.136Z,99689.44
2023-05-11T03:09:25.904Z,99687.84
2023-05-11T03:11:29.079Z,99683.94
2023-05-11T03:13:33.093Z,99687.16
2023-05-11T03:15:38.023Z,99692.34
2023-05-11T03:17:44.332Z,99686.97
2023-05-11T03:19:48.045Z,99698.66
2023-05-11T03:21:52.728Z,99688.56
2023-05-11T03:23:57.545Z,99695.34
2023-05-11T03:26:01.799Z,99695.50
2023-05-11T03:28:06.750Z,99698.88
2023-05-11T03:30:11.485Z,99696.13
2023-05-11T03:32:14.711Z,99695.31
2023-05-11T03:34:17.509Z,99700.16
2023-05-11T03:36:23.063Z,99691.59
2023-05-11T03:38:28.388Z,99693.66
2023-05-11T03:40:33.584Z,99701.81
2023-05-11T03:42:38.281Z,99703.75
2023-05-11T03:44:44.348Z,99706.16
2023-05-11T03:46:50.704Z,99701.44
2023-05-11T03:48:54.257Z,99711.34
2023-05-11T03:50:57.194Z,99711.03
2023-05-11T03:53:01.112Z,99712.63
2023-05-11T03:55:04.810Z,99711.16
2023-05-11T03:57:09.900Z,99717.16
2023-05-11T03:59:18.726Z,99711.47
2023-05-11T04:01:23.042Z,99714.84
2023-05-11T04:03:26.272Z,99722.94
2023-05-11T04:05:29.337Z,99718.50
2023-05-11T04:07:33.112Z,99723.97
2023-05-11T04:09:36.060Z,99717.47
2023-05-11T04:11:39.900Z,99721.97
2023-05-11T04:13:42.944Z,99721.31
2023-05-11T04:15:45.782Z,99723.25
2023-05-11T04:17:48.652Z,99729.69
2023-05-11T04:19:51.534Z,99726.28
2023-05-11T04:21:54.399Z,99719.50
2023-05-11T04:23:57.285Z,99726.16
2023-05-11T04:26:00.022Z,99724.38
2023-05-11T04:28:02.785Z,99729.25
2023-05-11T04:30:06.618Z,99721.78
2023-05-11T04:32:10.544Z,99729.69
2023-05-11T04:34:13.271Z,99731.00
2023-05-11T04:36:16.205Z,99731.50
2023-05-11T04:38:20.334Z,99724.50
2023-05-11T04:40:23.024Z,99723.38
2023-05-11T04:42:25.853Z,99730.97
2023-05-11T04:44:28.636Z,99730.75
2023-05-11T04:46:31.365Z,99729.31
2023-05-11T04:48:34.174Z,99721.47
2023-05-11T04:50:37.306Z,99727.63
2023-05-11T04:52:40.028Z,99723.38
2023-05-11T04:54:42.752Z,99732.94
2023-05-11T04:56:45.571Z,99725.94
2023-05-11T04:58:48.306Z,99729.16
2023-05-11T05:00:51.220Z,99728.47
2023-05-11T05:02:54.082Z,99728.44
2023-05-11T05:04:57.113Z,99725.13
2023-05-11T05:06:59.987Z,99722.94
2023-05-11T05:09:02.693Z,99729.22
2023-05-11T05:11:05.467Z,99720.22
2023-05-11T05:13:08.461Z,99718.56
2023-05-11T05:15:12.580Z,99714.09
2023-05-11T05:17:15.531Z,99723.78
2023-05-11T05:19:20.356Z,99716.88
2023-05-11T05:21:23.149Z,99721.50
2023-05-11T05:23:26.213Z,99717.50
2023-05-11T05:25:29.027Z,99713.72
2023-05-11T05:27:34.725Z,99728.00
2023-05-11T05:29:37.881Z,99719.00
2023-05-11T05:31:40.592Z,99720.88
2023-05-11T05:33:43.364Z,99722.75
2023-05-11T05:35:47.142Z,99718.16
2023-05-11T05:37:49.919Z,99725.75
2023-05-11T05:39:52.635Z,99711.69
2023-05-11T05:41:55.482Z,99718.25
2023-05-11T05:43:58.098Z,99714.69
2023-05-11T05:46:00.841Z,99716.63
2023-05-11T05:48:06.191Z,99712.47
2023-05-11T05:50:09.191Z,99710.72
2023-05-11T05:52:12.138Z,99714.63
2023-05-11T05:54:14.873Z,99722.13
2023-05-11T05:56:17.582Z,99723.25
2023-05-11T05:58:20.218Z,99721.47
2023-05-11T06:00:23.440Z,99719.66
2023-05-11T06:02:26.200Z,99722.88
2023-05-11T06:04:29.157Z,99714.78
2023-05-11T06:06:32.003Z,99724.56
2023-05-11T06:08:34.656Z,99727.53
2023-05-11T06:10:37.579Z,99725.28
2023-05-11T06:12:40.342Z,99719.06
2023-05-11T06:14:43.043Z,99721.56
2023-05-11T06:16:45.878Z,99715.50
2023-05-11T06:18:48.660Z,99716.41
2023-05-11T06:20:51.790Z,99716.94
2023-05-11T06:22:54.464Z,99714.75
2023-05-11T06:24:58.260Z,99720.28
2023-05-11T06:27:01.077Z,99724.84
2023-05-11T06:29:03.703Z,99720.66
2023-05-11T06:31:06.447Z,99719.94
2023-05-11T06:33:09.258Z,99721.19
2023-05-11T06:35:12.194Z,99715.28
2023-05-11T06:37:20.634Z,99708.66
2023-05-11T06:39:23.313Z,99708.13
2023-05-11T06:41:26.213Z,99709.81
2023-05-11T06:43:28.835Z,99703.22
2023-05-11T06:45:31.492Z,99719.59
2023-05-11T06:47:34.341Z,99723.38
2023-05-11T06:49:37.094Z,99722.28
2023-05-11T06:51:39.735Z,99719.25
2023-05-11T06:53:42.503Z,99719.31
2023-05-11T06:55:45.219Z,99722.19
2023-05-11T06:57:47.939Z,99728.69
2023-05-11T06:59:50.952Z,99720.47
2023-05-11T07:01:53.621Z,99721.25
2023-05-11T07:03:56.340Z,99719.34
2023-05-11T07:05:59.033Z,99728.13
2023-05-11T07:08:02.466Z,99728.28
2023-05-11T07:10:07.453Z,99722.53
2023-05-11T07:12:10.610Z,99722.34
2023-05-11T07:14:13.251Z,99722.34
2023-05-11T07:16:16.161Z,99721.59
2023-05-11T07:18:18.841Z,99717.72
2023-05-11T07:20:21.615Z,99719.41
2023-05-11T07:22:24.384Z,99712.75
2023-05-11T07:24:27.099Z,99715.06
2023-05-11T07:26:30.515Z,99716.53
2023-05-11T07:28:33.332Z,99704.38
2023-05-11T07:30:36.107Z,99709.31
2023-05-11T07:32:39.046Z,99716.63
2023-05-11T07:34:41.940Z,99709.84
2023-05-11T07:36:45.120Z,99715.16
2023-05-11T07:38:47.735Z,99712.38
2023-05-11T07:40:50.652Z,99711.66
2023-05-11T07:42:54.294Z,99709.97
2023-05-11T07:44:56.965Z,99716.19
2023-05-11T07:46:59.777Z,99708.28
2023-05-11T07:49:14.652Z,99713.94
2023-05-11T07:51:21.607Z,99712.78
2023-05-11T07:53:24.506Z,99714.97
2023-05-11T07:55:27.260Z,99704.78
2023-05-11T07:57:29.888Z,99713.81
2023-05-11T07:59:33.049Z,99714.81
2023-05-11T08:01:35.690Z,99717.91
2023-05-11T08:03:38.572Z,99714.16
2023-05-11T08:05:41.318Z,99717.84
2023-05-11T08:07:44.040Z,99702.25
2023-05-11T08:09:46.671Z,99703.25
2023-05-11T08:11:50.252Z,99704.09
2023-05-11T08:13:52.952Z,99706.53
2023-05-11T08:15:55.692Z,99701.41
2023-05-11T08:17:58.509Z,99710.38
2023-05-11T08:20:01.245Z,99706.50
2023-05-11T08:22:04.136Z,99716.22
2023-05-11T08:24:07.060Z,99706.13
2023-05-11T08:26:09.747Z,99709.06
2023-05-11T08:28:12.462Z,99698.72
2023-05-11T08:30:15.584Z,99694.03
2023-05-11T08:32:18.375Z,99698.22
2023-05-11T08:34:21.069Z,99697.56
2023-05-11T08:36:23.888Z,99694.34
2023-05-11T08:38:26.893Z,99696.69
2023-05-11T08:40:31.427Z,99692.94
2023-05-11T08:42:35.636Z,99688.03
2023-05-11T08:44:40.951Z,99690.72
2023-05-11T08:46:50.153Z,99683.34
2023-05-11T08:49:00.071Z,99696.56
2023-05-11T08:51:04.522Z,99681.63
2023-05-11T08:53:07.619Z,99688.75
2023-05-11T08:55:10.631Z,99693.78
2023-05-11T08:57:14.687Z,99682.25
2023-05-11T08:59:18.963Z,99682.78
2023-05-11T09:01:23.642Z,99681.31
2023-05-11T09:03:29.869Z,99680.13
2023-05-11T09:05:33.382Z,99675.78
2023-05-11T09:07:40.598Z,99673.72
2023-05-11T09:09:43.508Z,99670.38
2023-05-11T09:11:46.468Z,99675.81
2023-05-11T09:13:49.670Z,99676.78
2023-05-11T09:15:52.442Z,99672.59
2023-05-11T09:17:55.334Z,99671.88
2023-05-11T09:19:58.594Z,99673.31
2023-05-11T09:22:01.341Z,99666.22
2023-05-11T09:24:04.346Z,99661.06
2023-05-11T09:26:30.105Z,99666.66
2023-05-11T09:28:35.974Z,99658.34
2023-05-11T09:30:39.532Z,99664.63
2023-05-11T09:32:55.613Z,99663.25
2023-05-11T09:34:58.549Z,99664.13
2023-05-11T09:37:01.210Z,99659.84
2023-05-11T09:39:04.787Z,99656.44
2023-05-11T09:41:08.587Z,99655.25
2023-05-11T09:43:23.790Z,99650.84
2023-05-11T09:45:40.449Z,99660.81
2023-05-11T09:47:43.473Z,99668.34
2023-05-11T09:49:47.232Z,99669.06
2023-05-11T09:52:01.324Z,99666.16
2023-05-11T09:54:24.227Z,99658.50
2023-05-11T09:56:49.514Z,99663.81
2023-05-11T09:58:57.625Z,99670.56
2023-05-11T10:01:00.752Z,99654.47
2023-05-11T10:03:06.066Z,99664.41
2023-05-11T10:05:13.417Z,99653.41
2023-05-11T10:07:32.941Z,99654.38
2023-05-11T10:09:35.998Z,99658.50
2023-05-11T10:11:43.621Z,99652.56
2023-05-11T10:13:46.437Z,99652.66
2023-05-11T10:15:52.370Z,99651.44
2023-05-11T10:17:57.256Z,99646.53
2023-05-11T10:20:01.289Z,99656.34
2023-05-11T10:22:06.112Z,99652.88
2023-05-11T10:24:10.457Z,99653.06
2023-05-11T10:26:14.142Z,99650.44
2023-05-11T10:28:17.385Z,99651.84
2023-05-11T10:30:21.107Z,99645.38
2023-05-11T10:32:24.508Z,99644.63
2023-05-11T10:34:29.321Z,99641.84
2023-05-11T10:36:32.129Z,99648.50
2023-05-11T10:38:35.036Z,99649.72
2023-05-11T10:40:42.040Z,99647.31
2023-05-11T10:43:15.985Z,99648.41
2023-05-11T10:45:43.390Z,99642.28
2023-05-11T10:47:55.408Z,99645.69
2023-05-11T10:50:24.467Z,99634.38
2023-05-11T10:52:37.313Z,99637.69
2023-05-11T10:55:34.422Z,99628.94
2023-05-11T10:57:48.942Z,99624.22
2023-05-11T11:00:11.376Z,99623.47
2023-05-11T11:02:14.352Z,99621.03
2023-05-11T11:04:17.590Z,99624.22
2023-05-11T11:06:26.370Z,99622.25
2023-05-11T11:08:30.082Z,99622.66
2023-05-11T11:10:40.598Z,99617.88
2023-05-11T11:13:03.095Z,99613.78
2023-05-11T11:15:07.475Z,99626.53
2023-05-11T11:17:21.057Z,99623.69
2023-05-11T11:19:33.382Z,99618.06
2023-05-11T11:21:42.957Z,99613.34
2023-05-11T11:23:51.393Z,99608.22
2023-05-11T11:25:54.555Z,99600.66
2023-05-11T11:27:58.738Z,99606.66
2023-05-11T11:30:19.979Z,99605.03
2023-05-11T11:32:23.407Z,99605.06
2023-05-11T11:34:29.287Z,99599.84
2023-05-11T11:36:58.706Z,99595.03
2023-05-11T11:39:04.006Z,99586.22
2023-05-11T11:41:08.967Z,99596.53
2023-05-11T11:43:25.526Z,99588.63
2023-05-11T11:45:32.768Z,99599.44
2023-05-11T11:47:35.685Z,99597.00
2023-05-11T11:49:40.039Z,99596.19
2023-05-11T11:51:42.804Z,99592.91
2023-05-11T11:53:51.370Z,99590.38
2023-05-11T11:55:54.091Z,99587.06
2023-05-11T11:57:57.080Z,99583.75
2023-05-11T12:00:13.070Z,99577.94
2023-05-11T12:02:17.898Z,99574.59
2023-05-11T12:04:51.133Z,99567.47
2023-05-11T12:06:58.825Z,99566.97
2023-05-11T12:09:01.860Z,99572.31
2023-05-11T12:11:06.438Z,99572.03
2023-05-11T12:13:11.563Z,99569.94
2023-05-11T12:15:25.606Z,99558.13
2023-05-11T12:17:30.163Z,99561.22
2023-05-11T12:19:32.970Z,99562.78
2023-05-11T12:21:35.820Z,99566.34
2023-05-11T12:23:38.718Z,99554.91
2023-05-11T12:25:41.525Z,99564.16
2023-05-11T12:28:13.866Z,99558.09
2023-05-11T12:30:27.405Z,99559.03
2023-05-11T12:32:36.906Z,99547.84
2023-05-11T12:34:39.748Z,99557.47
2023-05-11T12:36:43.425Z,99551.38
2023-05-11T12:38:49.450Z,99549.50
2023-05-11T12:40:53.516Z,99546.44
2023-05-11T12:42:58.201Z,99552.13
2023-05-11T12:45:01.157Z,99550.22
2023-05-11T12:47:04.521Z,99549.66
2023-05-11T12:49:07.575Z,99546.41
2023-05-11T12:51:10.623Z,99542.63
2023-05-11T12:53:18.794Z,99540.44
2023-05-11T12:55:31.353Z,99539.19
2023-05-11T12:57:34.126Z,99534.53
2023-05-11T12:59:43.842Z,99524.81
2023-05-11T13:01:47.466Z,99527.91
2023-05-11T13:03:52.100Z,99529.78
2023-05-11T13:06:19.359Z,99520.66
2023-05-11T13:08:22.436Z,99527.53
2023-05-11T13:10:27.016Z,99534.41
2023-05-11T13:12:34.453Z,99530.56
2023-05-11T13:14:37.398Z,99524.38
2023-05-11T13:16:40.012Z,99526.38
2023-05-11T13:18:59.471Z,99526.09
2023-05-11T13:21:09.689Z,99529.03
2023-05-11T13:23:15.467Z,99530.03
2023-05-11T13:25:21.314Z,99534.81
2023-05-11T13:27:24.238Z,99531.47
2023-05-11T13:29:27.455Z,99530.47
2023-05-11T13:31:30.197Z,99535.38
2023-05-11T13:33:33.220Z,99540.94
2023-05-11T13:35:40.206Z,99533.75
2023-05-11T13:37:43.027Z,99540.97
2023-05-11T13:39:45.841Z,99538.03
2023-05-11T13:41:48.816Z,99539.66
2023-05-11T13:43:51.710Z,99536.72
2023-05-11T13:45:54.470Z,99531.31
2023-05-11T13:47:57.625Z,99535.13
2023-05-11T13:50:00.514Z,99531.84
2023-05-11T13:52:03.518Z,99526.28
2023-05-11T13:54:06.865Z,99521.88
2023-05-11T13:56:10.311Z,99519.84
2023-05-11T13:58:13.295Z,99522.59
2023-05-11T14:00:16.639Z,99518.81
2023-05-11T14:02:19.795Z,99522.63
2023-05-11T14:04:22.686Z,99521.59
2023-05-11T14:06:25.966Z,99520.94
2023-05-11T14:08:28.778Z,99517.09
2023-05-11T14:10:31.552Z,99518.56
2023-05-11T14:12:34.205Z,99526.38
2023-05-11T14:14:36.922Z,99516.28
2023-05-11T14:16:39.757Z,99517.03
2023-05-11T14:18:42.745Z,99519.34
2023-05-11T14:20:45.591Z,99515.78
2023-05-11T14:22:48.377Z,99521.78
2023-05-11T14:24:51.082Z,99512.91
2023-05-11T14:26:53.857Z,99514.19
2023-05-11T14:28:56.619Z,99510.22
2023-05-11T14:31:00.149Z,99522.06
2023-05-11T14:33:02.839Z,99518.50
2023-05-11T14:35:06.189Z,99511.06
2023-05-11T14:37:09.722Z,99512.78
2023-05-11T14:39:12.367Z,99510.03
2023-05-11T14:41:15.149Z,99508.75
2023-05-11T14:43:18.039Z,99511.41
2023-05-11T14:45:21.123Z,99505.47
2023-05-11T14:47:24.458Z,99507.06
2023-05-11T14:49:27.211Z,99504.69
2023-05-11T14:51:30.009Z,99503.75
2023-05-11T14:53:32.948Z,99513.50
2023-05-11T14:55:37.192Z,99507.50
2023-05-11T14:57:39.889Z,99515.56
2023-05-11T14:59:55.419Z,99501.56
2023-05-11T15:02:01.528Z,99500.81
2023-05-11T15:04:04.640Z,99503.13
2023-05-11T15:06:07.900Z,99497.78
2023-05-11T15:08:21.689Z,99503.63
2023-05-11T15:10:31.566Z,99497.84
2023-05-11T15:12:34.198Z,99495.16
2023-05-11T15:14:36.821Z,99499.19
2023-05-11T15:16:39.501Z,99503.41
2023-05-11T15:18:43.018Z,99490.25
2023-05-11T15:20:46.852Z,99495.91
2023-05-11T15:22:49.736Z,99494.13
2023-05-11T15:24:52.451Z,99499.13
2023-05-11T15:26:55.232Z,99493.03
2023-05-11T15:28:57.873Z,99503.25
2023-05-11T15:31:00.612Z,99499.41
2023-05-11T15:33:03.474Z,99491.91
2023-05-11T15:35:06.953Z,99499.16
2023-05-11T15:37:11.446Z,99498.66
2023-05-11T15:39:14.320Z,99490.81
2023-05-11T15:41:16.953Z,99488.59
2023-05-11T15:43:19.719Z,99491.94
2023-05-11T15:45:22.549Z,99489.25
2023-05-11T15:47:25.423Z,99494.06
2023-05-11T15:49:28.730Z,99493.31
2023-05-11T15:51:31.484Z,99486.59
2023-05-11T15:53:34.142Z,99485.41
2023-05-11T15:55:37.230Z,99494.66
2023-05-11T15:57:39.873Z,99482.72
2023-05-11T15:59:42.557Z,99491.13
2023-05-11T16:01:45.485Z,99493.88
2023-05-11T16:03:48.318Z,99489.88
2023-05-11T16:05:51.116Z,99497.06
2023-05-11T16:07:53.903Z,99491.84
2023-05-11T16:09:56.606Z,99497.03
2023-05-11T16:11:59.251Z,99496.22
2023-05-11T16:14:01.922Z,99485.41
2023-05-11T16:16:05.020Z,99494.97
2023-05-11T16:18:07.858Z,99491.72
2023-05-11T16:20:11.443Z,99491.66
2023-05-11T16:22:14.085Z,99500.34
2023-05-11T16:24:16.747Z,99485.91
2023-05-11T16:26:19.481Z,99493.81
2023-05-11T16:28:22.625Z,99489.75
2023-05-11T16:30:26.100Z,99498.47
2023-05-11T16:32:28.966Z,99499.63
2023-05-11T16:34:32.011Z,99502.31
2023-05-11T16:36:34.664Z,99499.47
2023-05-11T16:38:37.844Z,99497.78
2023-05-11T16:40:40.905Z,99502.13
2023-05-11T16:42:43.597Z,99502.81
2023-05-11T16:44:46.347Z,99505.16
2023-05-11T16:46:49.348Z,99503.06
2023-05-11T16:48:52.137Z,99502.09
2023-05-11T16:50:55.833Z,99510.81
2023-05-11T16:52:58.844Z,99512.28
2023-05-11T16:55:01.648Z,99506.63
2023-05-11T16:57:06.782Z,99509.75
2023-05-11T16:59:10.788Z,99511.66
2023-05-11T17:01:14.238Z,99516.25
2023-05-11T17:03:19.019Z,99518.53
2023-05-11T17:05:23.217Z,99511.13
2023-05-11T17:07:26.606Z,99518.53
2023-05-11T17:09:29.697Z,99521.59
2023-05-11T17:11:32.540Z,99513.13
2023-05-11T17:13:35.241Z,99518.53
2023-05-11T17:15:38.236Z,99525.16
2023-05-11T17:17:41.375Z,99524.63
2023-05-11T17:19:44.217Z,99522.16
2023-05-11T17:21:46.906Z,99522.78
2023-05-11T17:23:49.500Z,99530.94
2023-05-11T17:25:52.802Z,99527.97
2023-05-11T17:27:55.575Z,99529.44
2023-05-11T17:29:58.559Z,99529.28
2023-05-11T17:32:01.505Z,99534.44
2023-05-11T17:34:04.569Z,99525.09
2023-05-11T17:36:07.989Z,99528.91
2023-05-11T17:38:10.702Z,99539.03
2023-05-11T17:40:13.712Z,99546.31
2023-05-11T17:42:16.606Z,99537.78
2023-05-11T17:44:19.252Z,99539.97
2023-05-11T17:46:22.037Z,99539.31
2023-05-11T17:48:25.332Z,99546.28
2023-05-11T17:50:28.510Z,99541.75
2023-05-11T17:52:31.207Z,99548.38
2023-05-11T17:54:33.806Z,99537.13
2023-05-11T17:56:36.504Z,99536.97
2023-05-11T17:58:39.327Z,99543.16
2023-05-11T18:00:41.966Z,99542.19
2023-05-11T18:02:48.820Z,99541.66
2023-05-11T18:04:52.301Z,99543.09
2023-05-11T18:06:54.911Z,99549.34
2023-05-11T18:08:59.082Z,99548.09
2023-05-11T18:11:01.833Z,99553.81
2023-05-11T18:13:04.977Z,99551.16
2023-05-11T18:15:08.162Z,99549.38
2023-05-11T18:17:10.949Z,99549.09
2023-05-11T18:19:13.622Z,99549.25
2023-05-11T18:21:16.554Z,99551.72
2023-05-11T18:23:19.259Z,99546.34
2023-05-11T18:25:22.285Z,99550.09
2023-05-11T18:27:25.567Z,99550.78
2023-05-11T18:29:28.317Z,99555.44
2023-05-11T18:31:31.793Z,99546.66
2023-05-11T18:33:34.557Z,99548.97
2023-05-11T18:35:39.175Z,99553.72
2023-05-11T18:37:42.033Z,99549.59
2023-05-11T18:39:45.426Z,99549.84
2023-05-11T18:41:48.248Z,99544.56
2023-05-11T18:43:52.871Z,99540.78
2023-05-11T18:45:55.576Z,99532.63
2023-05-11T18:47:58.319Z,99530.91
2023-05-11T18:50:01.071Z,99536.34
2023-05-11T18:52:04.224Z,99530.97
2023-05-11T18:54:07.138Z,99533.16
2023-05-11T18:56:11.244Z,99531.44
2023-05-11T18:58:13.946Z,99538.25
2023-05-11T19:00:16.836Z,99526.19
2023-05-11T19:02:19.653Z,99537.25
2023-05-11T19:04:23.229Z,99533.56
2023-05-11T19:06:26.106Z,99543.66
2023-05-11T19:08:29.620Z,99534.09
2023-05-11T19:10:32.297Z,99529.63
2023-05-11T19:12:35.005Z,99523.53
2023-05-11T19:14:37.753Z,99528.94
2023-05-11T19:16:40.401Z,99524.44
2023-05-11T19:18:43.364Z,99520.41
2023-05-11T19:20:46.429Z,99522.63
2023-05-11T19:22:49.379Z,99524.81
2023-05-11T19:24:52.067Z,99523.44
2023-05-11T19:27:06.798Z,99525.72
2023-05-11T19:29:11.837Z,99520.78
2023-05-11T19:31:14.452Z,99515.63
2023-05-11T19:33:17.206Z,99520.06
2023-05-11T19:35:19.874Z,99525.03
2023-05-11T19:37:22.671Z,99524.09
2023-05-11T19:39:25.712Z,99519.97
2023-05-11T19:41:28.554Z,99510.50
2023-05-11T19:43:31.482Z,99519.94
2023-05-11T19:45:34.362Z,99509.34
2023-05-11T19:47:40.222Z,99512.09
2023-05-11T19:49:44.245Z,99515.06
2023-05-11T19:51:47.218Z,99506.66
2023-05-11T19:53:50.194Z,99513.91
2023-05-11T19:55:53.064Z,99503.06
2023-05-11T19:57:55.896Z,99494.66
2023-05-11T19:59:58.690Z,99498.56
2023-05-11T20:02:02.627Z,99491.28
2023-05-11T20:04:05.531Z,99486.47
2023-05-11T20:06:08.444Z,99494.59
2023-05-11T20:08:11.354Z,99495.59
2023-05-11T20:10:51.273Z,99484.78
2023-05-11T20:12:54.101Z,99488.31
2023-05-11T20:14:56.707Z,99489.31
2023-05-11T20:16:59.421Z,99487.56
2023-05-11T20:19:02.034Z,99482.41
2023-05-11T20:21:04.739Z,99475.50
2023-05-11T20:23:45.984Z,99484.09
2023-05-11T20:25:48.633Z,99485.31
2023-05-11T20:27:51.774Z,99472.84
2023-05-11T20:29:55.351Z,99480.66
2023-05-11T20:32:16.328Z,99479.38
2023-05-11T20:34:37.737Z,99484.28
2023-05-11T20:36:40.942Z,99478.03
2023-05-11T20:38:44.082Z,99476.44
2023-05-11T20:40:46.910Z,99477.91
2023-05-11T20:42:49.726Z,99482.94
2023-05-11T20:44:52.850Z,99479.56
2023-05-11T20:46:55.828Z,99467.31
2023-05-11T20:48:58.599Z,99471.69
2023-05-11T20:51:01.201Z,99482.09
2023-05-11T20:53:03.891Z,99481.81
2023-05-11T20:55:07.727Z,99473.13
2023-05-11T20:57:10.765Z,99468.63
2023-05-11T21:00:03.690Z,99467.00
2023-05-11T21:01:36.541Z,99479.03
2023-05-11T21:03:39.485Z,99474.13
2023-05-11T21:05:42.218Z,99473.19
2023-05-11T21:07:44.955Z,99479.34
2023-05-11T21:09:47.587Z,99476.47
2023-05-11T21:11:50.239Z,99475.03
2023-05-11T21:13:53.054Z,99472.09
2023-05-11T21:15:55.693Z,99476.00
2023-05-11T21:17:58.402Z,99477.81
2023-05-11T21:20:01.557Z,99474.13
2023-05-11T21:22:06.200Z,99479.78
2023-05-11T21:24:09.033Z,99466.38
2023-05-11T21:26:11.836Z,99474.81
2023-05-11T21:28:14.789Z,99477.38
2023-05-11T21:30:17.682Z,99481.59
2023-05-11T21:32:20.499Z,99479.84
2023-05-11T21:34:23.099Z,99470.47
2023-05-11T21:36:25.976Z,99476.31
2023-05-11T21:38:28.651Z,99478.91
2023-05-11T21:40:31.239Z,99465.16
2023-05-11T21:42:36.348Z,99466.78
2023-05-11T21:44:39.228Z,99471.78
2023-05-11T21:46:41.960Z,99471.31
2023-05-11T21:48:44.626Z,99470.00
2023-05-11T21:50:53.837Z,99465.19
2023-05-11T21:52:57.009Z,99470.53
2023-05-11T21:54:59.733Z,99469.56
2023-05-11T21:57:04.096Z,99474.88
2023-05-11T21:59:06.674Z,99472.00
2023-05-11T22:01:09.310Z,99468.28
2023-05-11T22:03:12.127Z,99473.28
2023-05-11T22:05:15.213Z,99474.59
2023-05-11T22:07:17.862Z,99480.72
2023-05-11T22:09:20.542Z,99475.38
2023-05-11T22:11:23.138Z,99483.94
2023-05-11T22:13:26.340Z,99476.69
2023-05-11T22:15:30.441Z,99475.06
2023-05-11T22:17:33.167Z,99467.63
2023-05-11T22:19:35.820Z,99470.38
2023-05-11T22:21:38.503Z,99470.06
2023-05-11T22:23:41.174Z,99464.06
2023-05-11T22:25:45.041Z,99468.91
2023-05-11T22:27:48.134Z,99466.66
2023-05-11T22:29:52.383Z,99470.69
2023-05-11T22:31:55.062Z,99464.41
2023-05-11T22:33:59.162Z,99466.34
2023-05-11T22:36:01.874Z,99463.28
2023-05-11T22:38:04.943Z,99469.91
2023-05-11T22:40:09.022Z,99464.72
2023-05-11T22:42:11.634Z,99465.38
2023-05-11T22:44:14.332Z,99463.75
2023-05-11T22:46:17.574Z,99460.84
2023-05-11T22:48:20.294Z,99452.09
2023-05-11T22:50:22.892Z,99453.56
2023-05-11T22:52:25.671Z,99455.03
2023-05-11T22:54:28.364Z,99447.44
2023-05-11T22:56:31.383Z,99447.75
2023-05-11T22:58:34.296Z,99450.34
2023-05-11T23:00:37.386Z,99455.00
2023-05-11T23:02:40.458Z,99447.44
2023-05-11T23:04:43.412Z,99449.69
2023-05-11T23:06:46.058Z,99451.13
2023-05-11T23:08:48.733Z,99446.59
2023-05-11T23:10:51.517Z,99447.22
2023-05-11T23:12:54.457Z,99438.81
2023-05-11T23:14:57.035Z,99437.84
2023-05-11T23:16:59.768Z,99438.47
2023-05-11T23:19:02.683Z,99441.38
2023-05-11T23:21:05.532Z,99439.28
2023-05-11T23:23:08.182Z,99439.75
2023-05-11T23:25:11.136Z,99442.34
2023-05-11T23:27:13.863Z,99432.13
2023-05-11T23:29:16.594Z,99436.50
2023-05-11T23:31:19.937Z,99436.34
2023-05-11T23:33:23.063Z,99436.63
2023-05-11T23:35:25.751Z,99432.78
2023-05-11T23:37:28.325Z,99436.34
2023-05-11T23:39:30.897Z,99426.97
2023-05-11T23:41:33.728Z,99422.91
2023-05-11T23:43:37.409Z,99418.56
2023-05-11T23:45:40.296Z,99419.88
2023-05-11T23:47:43.124Z,99426.16
2023-05-11T23:49:45.799Z,99417.13
2023-05-11T23:51:48.515Z,99419.38
2023-05-11T23:53:51.506Z,99415.84
2023-05-11T23:55:54.142Z,99418.88
2023-05-11T23:57:58.817Z,99418.06
